sensor_id;sensor_type;location;lat;lon;timestamp;P1;durP1;ratioP1;P2;durP2;ratioP2
82159;SDS011;71734;50.876;7.372;2023-07-31T00:02:11;6.75;;;2.00;;
82159;SDS011;71734;50.876;7.372;2023-07-31T00:04:38;6.07;;;2.00;;
82159;SDS011;71734;50.876;7.372;2023-07-31T00:07:04;7.13;;;2.00;;
82159;SDS011;71734;50.876;7.372;2023-07-31T00:09:31;6.75;;;1.95;;
82159;SDS011;71734;50.876;7.372;2023-07-31T00:11:58;5.97;;;2.10;;
82159;SDS011;71734;50.876;7.372;2023-07-31T00:14:24;6.53;;;2.00;;
82159;SDS011;71734;50.876;7.372;2023-07-31T00:16:52;7.28;;;2.13;;
82159;SDS011;71734;50.876;7.372;2023-07-31T00:19:18;7.53;;;2.20;;
82159;SDS011;71734;50.876;7.372;2023-07-31T00:21:45;8.45;;;2.53;;
82159;SDS011;71734;50.876;7.372;2023-07-31T00:24:11;7.20;;;2.10;;
82159;SDS011;71734;50.876;7.372;2023-07-31T00:26:38;8.25;;;2.38;;
82159;SDS011;71734;50.876;7.372;2023-07-31T00:29:04;7.05;;;1.90;;
82159;SDS011;71734;50.876;7.372;2023-07-31T00:31:31;6.32;;;1.85;;
82159;SDS011;71734;50.876;7.372;2023-07-31T00:33:58;6.88;;;2.15;;
82159;SDS011;71734;50.876;7.372;2023-07-31T00:36:25;9.63;;;2.55;;
82159;SDS011;71734;50.876;7.372;2023-07-31T00:38:51;6.78;;;1.92;;
82159;SDS011;71734;50.876;7.372;2023-07-31T00:41:17;5.90;;;1.92;;
82159;SDS011;71734;50.876;7.372;2023-07-31T00:43:44;7.30;;;2.33;;
82159;SDS011;71734;50.876;7.372;2023-07-31T00:46:10;7.63;;;2.20;;
82159;SDS011;71734;50.876;7.372;2023-07-31T00:48:37;7.55;;;2.20;;
82159;SDS011;71734;50.876;7.372;2023-07-31T00:51:06;5.70;;;1.98;;
82159;SDS011;71734;50.876;7.372;2023-07-31T00:53:35;7.22;;;2.25;;
82159;SDS011;71734;50.876;7.372;2023-07-31T00:56:02;6.45;;;2.08;;
82159;SDS011;71734;50.876;7.372;2023-07-31T00:58:29;10.00;;;1.90;;
82159;SDS011;71734;50.876;7.372;2023-07-31T01:00:56;6.28;;;2.03;;
82159;SDS011;71734;50.876;7.372;2023-07-31T01:03:22;7.03;;;2.00;;
82159;SDS011;71734;50.876;7.372;2023-07-31T01:05:49;7.53;;;2.05;;
82159;SDS011;71734;50.876;7.372;2023-07-31T01:08:24;6.47;;;2.13;;
82159;SDS011;71734;50.876;7.372;2023-07-31T01:10:59;7.40;;;1.85;;
82159;SDS011;71734;50.876;7.372;2023-07-31T01:13:33;6.07;;;1.98;;
82159;SDS011;71734;50.876;7.372;2023-07-31T01:16:00;7.00;;;1.95;;
82159;SDS011;71734;50.876;7.372;2023-07-31T01:18:26;6.45;;;2.03;;
82159;SDS011;71734;50.876;7.372;2023-07-31T01:20:54;5.97;;;1.80;;
82159;SDS011;71734;50.876;7.372;2023-07-31T01:23:35;6.18;;;1.95;;
82159;SDS011;71734;50.876;7.372;2023-07-31T01:26:22;5.68;;;1.80;;
82159;SDS011;71734;50.876;7.372;2023-07-31T01:28:55;7.03;;;2.03;;
82159;SDS011;71734;50.876;7.372;2023-07-31T01:31:25;6.28;;;2.00;;
82159;SDS011;71734;50.876;7.372;2023-07-31T01:33:52;6.60;;;2.00;;
82159;SDS011;71734;50.876;7.372;2023-07-31T01:36:20;7.35;;;1.95;;
82159;SDS011;71734;50.876;7.372;2023-07-31T01:38:47;7.82;;;1.90;;
82159;SDS011;71734;50.876;7.372;2023-07-31T01:41:16;6.50;;;1.80;;
82159;SDS011;71734;50.876;7.372;2023-07-31T01:43:44;5.25;;;1.92;;
82159;SDS011;71734;50.876;7.372;2023-07-31T01:46:10;7.22;;;1.90;;
82159;SDS011;71734;50.876;7.372;2023-07-31T01:48:37;6.85;;;2.20;;
82159;SDS011;71734;50.876;7.372;2023-07-31T01:51:03;7.45;;;1.80;;
82159;SDS011;71734;50.876;7.372;2023-07-31T01:53:30;6.25;;;2.03;;
82159;SDS011;71734;50.876;7.372;2023-07-31T01:55:57;8.43;;;1.90;;
82159;SDS011;71734;50.876;7.372;2023-07-31T01:58:23;7.07;;;1.90;;
82159;SDS011;71734;50.876;7.372;2023-07-31T02:00:51;6.25;;;1.75;;
82159;SDS011;71734;50.876;7.372;2023-07-31T02:03:18;8.93;;;2.08;;
82159;SDS011;71734;50.876;7.372;2023-07-31T02:05:44;6.25;;;1.70;;
82159;SDS011;71734;50.876;7.372;2023-07-31T02:08:11;7.15;;;2.03;;
82159;SDS011;71734;50.876;7.372;2023-07-31T02:10:38;6.18;;;2.08;;
82159;SDS011;71734;50.876;7.372;2023-07-31T02:13:04;4.80;;;1.40;;
82159;SDS011;71734;50.876;7.372;2023-07-31T02:15:31;7.05;;;1.58;;
82159;SDS011;71734;50.876;7.372;2023-07-31T02:17:58;6.93;;;1.92;;
82159;SDS011;71734;50.876;7.372;2023-07-31T02:20:25;5.93;;;1.50;;
82159;SDS011;71734;50.876;7.372;2023-07-31T02:22:51;6.40;;;1.70;;
82159;SDS011;71734;50.876;7.372;2023-07-31T02:25:18;5.78;;;1.60;;
82159;SDS011;71734;50.876;7.372;2023-07-31T02:27:44;5.00;;;1.48;;
82159;SDS011;71734;50.876;7.372;2023-07-31T02:30:11;6.10;;;1.83;;
82159;SDS011;71734;50.876;7.372;2023-07-31T02:32:37;4.95;;;1.48;;
82159;SDS011;71734;50.876;7.372;2023-07-31T02:35:06;6.65;;;1.90;;
82159;SDS011;71734;50.876;7.372;2023-07-31T02:37:33;7.78;;;1.90;;
82159;SDS011;71734;50.876;7.372;2023-07-31T02:40:00;5.35;;;1.63;;
82159;SDS011;71734;50.876;7.372;2023-07-31T02:42:27;5.07;;;1.70;;
82159;SDS011;71734;50.876;7.372;2023-07-31T02:44:53;5.88;;;1.60;;
82159;SDS011;71734;50.876;7.372;2023-07-31T02:47:20;5.47;;;1.55;;
82159;SDS011;71734;50.876;7.372;2023-07-31T02:49:47;6.13;;;1.80;;
82159;SDS011;71734;50.876;7.372;2023-07-31T02:52:15;6.90;;;1.67;;
82159;SDS011;71734;50.876;7.372;2023-07-31T02:54:41;5.82;;;1.40;;
82159;SDS011;71734;50.876;7.372;2023-07-31T02:57:07;5.35;;;1.60;;
82159;SDS011;71734;50.876;7.372;2023-07-31T02:59:34;5.55;;;1.70;;
82159;SDS011;71734;50.876;7.372;2023-07-31T03:02:00;5.53;;;1.70;;
82159;SDS011;71734;50.876;7.372;2023-07-31T03:04:27;5.72;;;1.85;;
82159;SDS011;71734;50.876;7.372;2023-07-31T03:06:53;4.90;;;1.60;;
82159;SDS011;71734;50.876;7.372;2023-07-31T03:09:21;4.80;;;1.88;;
82159;SDS011;71734;50.876;7.372;2023-07-31T03:11:48;7.90;;;1.90;;
82159;SDS011;71734;50.876;7.372;2023-07-31T03:14:14;5.88;;;1.60;;
82159;SDS011;71734;50.876;7.372;2023-07-31T03:16:41;5.53;;;1.55;;
82159;SDS011;71734;50.876;7.372;2023-07-31T03:19:07;4.93;;;1.60;;
82159;SDS011;71734;50.876;7.372;2023-07-31T03:21:34;7.10;;;1.92;;
82159;SDS011;71734;50.876;7.372;2023-07-31T03:26:30;7.05;;;1.80;;
82159;SDS011;71734;50.876;7.372;2023-07-31T03:28:57;5.72;;;1.80;;
82159;SDS011;71734;50.876;7.372;2023-07-31T03:31:23;6.95;;;1.70;;
82159;SDS011;71734;50.876;7.372;2023-07-31T03:33:50;8.10;;;2.08;;
82159;SDS011;71734;50.876;7.372;2023-07-31T03:36:16;5.45;;;1.85;;
82159;SDS011;71734;50.876;7.372;2023-07-31T03:38:42;8.57;;;2.10;;
82159;SDS011;71734;50.876;7.372;2023-07-31T03:41:09;8.07;;;1.90;;
82159;SDS011;71734;50.876;7.372;2023-07-31T03:43:36;6.53;;;2.00;;
82159;SDS011;71734;50.876;7.372;2023-07-31T03:46:05;5.28;;;1.75;;
82159;SDS011;71734;50.876;7.372;2023-07-31T03:48:31;8.35;;;2.25;;
82159;SDS011;71734;50.876;7.372;2023-07-31T03:50:58;6.30;;;1.90;;
82159;SDS011;71734;50.876;7.372;2023-07-31T03:53:24;8.25;;;2.13;;
82159;SDS011;71734;50.876;7.372;2023-07-31T03:55:51;6.32;;;1.80;;
82159;SDS011;71734;50.876;7.372;2023-07-31T03:58:17;6.70;;;1.83;;
82159;SDS011;71734;50.876;7.372;2023-07-31T04:00:45;5.47;;;2.13;;
82159;SDS011;71734;50.876;7.372;2023-07-31T04:03:11;7.68;;;2.03;;
82159;SDS011;71734;50.876;7.372;2023-07-31T04:05:38;6.25;;;2.28;;
82159;SDS011;71734;50.876;7.372;2023-07-31T04:08:05;6.85;;;2.00;;
82159;SDS011;71734;50.876;7.372;2023-07-31T04:10:32;16.30;;;2.15;;
82159;SDS011;71734;50.876;7.372;2023-07-31T04:12:58;6.82;;;2.22;;
82159;SDS011;71734;50.876;7.372;2023-07-31T04:15:25;7.85;;;2.25;;
82159;SDS011;71734;50.876;7.372;2023-07-31T04:17:53;6.65;;;2.00;;
82159;SDS011;71734;50.876;7.372;2023-07-31T04:20:19;5.80;;;2.08;;
82159;SDS011;71734;50.876;7.372;2023-07-31T04:22:45;7.13;;;2.40;;
82159;SDS011;71734;50.876;7.372;2023-07-31T04:25:12;6.05;;;2.03;;
82159;SDS011;71734;50.876;7.372;2023-07-31T04:27:39;6.88;;;1.90;;
82159;SDS011;71734;50.876;7.372;2023-07-31T04:30:06;5.18;;;1.90;;
82159;SDS011;71734;50.876;7.372;2023-07-31T04:32:33;8.35;;;2.47;;
82159;SDS011;71734;50.876;7.372;2023-07-31T04:35:01;6.63;;;2.45;;
82159;SDS011;71734;50.876;7.372;2023-07-31T04:37:28;7.43;;;1.98;;
82159;SDS011;71734;50.876;7.372;2023-07-31T04:39:54;6.30;;;1.80;;
82159;SDS011;71734;50.876;7.372;2023-07-31T04:42:21;7.50;;;2.10;;
82159;SDS011;71734;50.876;7.372;2023-07-31T04:44:47;7.05;;;2.50;;
82159;SDS011;71734;50.876;7.372;2023-07-31T04:47:14;12.25;;;2.40;;
82159;SDS011;71734;50.876;7.372;2023-07-31T04:49:40;7.88;;;2.08;;
82159;SDS011;71734;50.876;7.372;2023-07-31T04:52:08;6.20;;;2.17;;
82159;SDS011;71734;50.876;7.372;2023-07-31T04:54:35;6.75;;;2.00;;
82159;SDS011;71734;50.876;7.372;2023-07-31T04:57:01;9.20;;;2.50;;
82159;SDS011;71734;50.876;7.372;2023-07-31T04:59:28;8.02;;;2.13;;
82159;SDS011;71734;50.876;7.372;2023-07-31T05:01:54;6.22;;;1.90;;
82159;SDS011;71734;50.876;7.372;2023-07-31T05:04:21;6.53;;;2.28;;
82159;SDS011;71734;50.876;7.372;2023-07-31T05:06:47;7.00;;;2.40;;
82159;SDS011;71734;50.876;7.372;2023-07-31T05:09:17;7.30;;;2.15;;
82159;SDS011;71734;50.876;7.372;2023-07-31T05:11:43;6.53;;;2.10;;
82159;SDS011;71734;50.876;7.372;2023-07-31T05:14:10;8.70;;;2.30;;
82159;SDS011;71734;50.876;7.372;2023-07-31T05:16:36;8.93;;;2.20;;
82159;SDS011;71734;50.876;7.372;2023-07-31T05:19:03;6.65;;;2.20;;
82159;SDS011;71734;50.876;7.372;2023-07-31T05:21:29;8.27;;;2.30;;
82159;SDS011;71734;50.876;7.372;2023-07-31T05:23:55;7.15;;;2.17;;
82159;SDS011;71734;50.876;7.372;2023-07-31T05:26:23;6.20;;;2.33;;
82159;SDS011;71734;50.876;7.372;2023-07-31T05:28:50;7.72;;;2.30;;
82159;SDS011;71734;50.876;7.372;2023-07-31T05:31:16;6.78;;;2.10;;
82159;SDS011;71734;50.876;7.372;2023-07-31T05:33:42;5.72;;;2.05;;
82159;SDS011;71734;50.876;7.372;2023-07-31T05:36:10;6.45;;;2.08;;
82159;SDS011;71734;50.876;7.372;2023-07-31T05:38:36;9.18;;;2.20;;
82159;SDS011;71734;50.876;7.372;2023-07-31T05:41:03;6.25;;;2.22;;
82159;SDS011;71734;50.876;7.372;2023-07-31T05:43:30;5.53;;;2.20;;
82159;SDS011;71734;50.876;7.372;2023-07-31T05:45:57;8.20;;;2.60;;
82159;SDS011;71734;50.876;7.372;2023-07-31T05:48:23;7.82;;;2.42;;
82159;SDS011;71734;50.876;7.372;2023-07-31T05:50:50;7.03;;;2.63;;
82159;SDS011;71734;50.876;7.372;2023-07-31T05:53:16;8.15;;;2.40;;
82159;SDS011;71734;50.876;7.372;2023-07-31T05:55:43;6.55;;;2.30;;
82159;SDS011;71734;50.876;7.372;2023-07-31T05:58:09;6.80;;;2.15;;
82159;SDS011;71734;50.876;7.372;2023-07-31T06:00:37;6.22;;;2.10;;
82159;SDS011;71734;50.876;7.372;2023-07-31T06:03:03;6.57;;;2.15;;
82159;SDS011;71734;50.876;7.372;2023-07-31T06:05:30;6.22;;;2.10;;
82159;SDS011;71734;50.876;7.372;2023-07-31T06:07:56;6.25;;;1.80;;
82159;SDS011;71734;50.876;7.372;2023-07-31T06:10:23;9.55;;;2.50;;
82159;SDS011;71734;50.876;7.372;2023-07-31T06:12:49;7.13;;;1.90;;
82159;SDS011;71734;50.876;7.372;2023-07-31T06:15:16;7.03;;;2.38;;
82159;SDS011;71734;50.876;7.372;2023-07-31T06:17:45;7.28;;;2.13;;
82159;SDS011;71734;50.876;7.372;2023-07-31T06:20:12;5.57;;;1.98;;
82159;SDS011;71734;50.876;7.372;2023-07-31T06:22:38;7.13;;;2.13;;
82159;SDS011;71734;50.876;7.372;2023-07-31T06:25:05;6.68;;;2.10;;
82159;SDS011;71734;50.876;7.372;2023-07-31T06:27:31;6.85;;;1.85;;
82159;SDS011;71734;50.876;7.372;2023-07-31T06:29:58;7.50;;;2.10;;
82159;SDS011;71734;50.876;7.372;2023-07-31T06:32:24;7.03;;;2.20;;
82159;SDS011;71734;50.876;7.372;2023-07-31T06:34:52;7.38;;;2.30;;
82159;SDS011;71734;50.876;7.372;2023-07-31T06:37:19;5.95;;;1.85;;
82159;SDS011;71734;50.876;7.372;2023-07-31T06:39:45;7.78;;;2.45;;
82159;SDS011;71734;50.876;7.372;2023-07-31T06:42:11;7.97;;;2.50;;
82159;SDS011;71734;50.876;7.372;2023-07-31T06:44:38;6.53;;;2.30;;
82159;SDS011;71734;50.876;7.372;2023-07-31T06:47:04;6.95;;;2.30;;
82159;SDS011;71734;50.876;7.372;2023-07-31T06:49:31;6.88;;;2.38;;
82159;SDS011;71734;50.876;7.372;2023-07-31T06:51:59;7.32;;;2.20;;
82159;SDS011;71734;50.876;7.372;2023-07-31T06:54:25;6.80;;;2.40;;
82159;SDS011;71734;50.876;7.372;2023-07-31T06:56:52;7.43;;;2.40;;
82159;SDS011;71734;50.876;7.372;2023-07-31T06:59:18;6.28;;;2.40;;
82159;SDS011;71734;50.876;7.372;2023-07-31T07:01:44;7.32;;;2.45;;
82159;SDS011;71734;50.876;7.372;2023-07-31T07:04:11;7.03;;;2.25;;
82159;SDS011;71734;50.876;7.372;2023-07-31T07:06:37;7.00;;;2.60;;
82159;SDS011;71734;50.876;7.372;2023-07-31T07:09:05;6.72;;;2.67;;
82159;SDS011;71734;50.876;7.372;2023-07-31T07:11:31;6.80;;;2.53;;
82159;SDS011;71734;50.876;7.372;2023-07-31T07:13:58;8.35;;;2.70;;
82159;SDS011;71734;50.876;7.372;2023-07-31T07:16:24;6.60;;;2.17;;
82159;SDS011;71734;50.876;7.372;2023-07-31T07:18:51;8.13;;;2.63;;
82159;SDS011;71734;50.876;7.372;2023-07-31T07:21:17;7.88;;;2.33;;
82159;SDS011;71734;50.876;7.372;2023-07-31T07:23:44;7.20;;;2.40;;
82159;SDS011;71734;50.876;7.372;2023-07-31T07:26:11;9.23;;;2.45;;
82159;SDS011;71734;50.876;7.372;2023-07-31T07:28:38;6.93;;;2.30;;
82159;SDS011;71734;50.876;7.372;2023-07-31T07:31:05;8.93;;;3.00;;
82159;SDS011;71734;50.876;7.372;2023-07-31T07:33:31;6.57;;;2.42;;
82159;SDS011;71734;50.876;7.372;2023-07-31T07:35:59;6.07;;;2.20;;
82159;SDS011;71734;50.876;7.372;2023-07-31T07:38:26;9.23;;;2.50;;
82159;SDS011;71734;50.876;7.372;2023-07-31T07:40:53;6.70;;;2.53;;
82159;SDS011;71734;50.876;7.372;2023-07-31T07:43:21;8.82;;;2.70;;
82159;SDS011;71734;50.876;7.372;2023-07-31T07:45:47;7.82;;;2.65;;
82159;SDS011;71734;50.876;7.372;2023-07-31T07:48:14;6.80;;;2.40;;
82159;SDS011;71734;50.876;7.372;2023-07-31T07:50:42;8.63;;;3.10;;
82159;SDS011;71734;50.876;7.372;2023-07-31T07:53:09;6.47;;;2.30;;
82159;SDS011;71734;50.876;7.372;2023-07-31T07:55:36;9.50;;;2.50;;
82159;SDS011;71734;50.876;7.372;2023-07-31T07:58:02;6.28;;;2.25;;
82159;SDS011;71734;50.876;7.372;2023-07-31T08:00:30;6.20;;;2.28;;
82159;SDS011;71734;50.876;7.372;2023-07-31T08:02:56;7.32;;;3.03;;
82159;SDS011;71734;50.876;7.372;2023-07-31T08:05:23;7.85;;;2.70;;
82159;SDS011;71734;50.876;7.372;2023-07-31T08:07:50;8.35;;;2.70;;
82159;SDS011;71734;50.876;7.372;2023-07-31T08:10:16;7.60;;;2.85;;
82159;SDS011;71734;50.876;7.372;2023-07-31T08:12:43;6.93;;;2.58;;
82159;SDS011;71734;50.876;7.372;2023-07-31T08:15:09;8.30;;;2.90;;
82159;SDS011;71734;50.876;7.372;2023-07-31T08:17:37;7.63;;;2.70;;
82159;SDS011;71734;50.876;7.372;2023-07-31T08:20:04;6.88;;;2.55;;
82159;SDS011;71734;50.876;7.372;2023-07-31T08:22:32;8.93;;;3.05;;
82159;SDS011;71734;50.876;7.372;2023-07-31T08:24:58;8.95;;;2.67;;
82159;SDS011;71734;50.876;7.372;2023-07-31T08:27:25;8.07;;;2.78;;
82159;SDS011;71734;50.876;7.372;2023-07-31T08:29:51;6.43;;;2.40;;
82159;SDS011;71734;50.876;7.372;2023-07-31T08:32:18;8.07;;;2.90;;
82159;SDS011;71734;50.876;7.372;2023-07-31T08:34:45;8.68;;;2.80;;
82159;SDS011;71734;50.876;7.372;2023-07-31T08:37:12;8.32;;;3.40;;
82159;SDS011;71734;50.876;7.372;2023-07-31T08:39:39;9.45;;;3.03;;
82159;SDS011;71734;50.876;7.372;2023-07-31T08:42:07;6.53;;;2.80;;
82159;SDS011;71734;50.876;7.372;2023-07-31T08:44:34;8.82;;;3.20;;
82159;SDS011;71734;50.876;7.372;2023-07-31T08:47:01;8.90;;;3.55;;
82159;SDS011;71734;50.876;7.372;2023-07-31T08:49:28;8.30;;;3.30;;
82159;SDS011;71734;50.876;7.372;2023-07-31T08:51:57;10.05;;;3.20;;
82159;SDS011;71734;50.876;7.372;2023-07-31T08:54:24;9.13;;;3.22;;
82159;SDS011;71734;50.876;7.372;2023-07-31T08:56:54;8.80;;;3.03;;
82159;SDS011;71734;50.876;7.372;2023-07-31T08:59:22;9.32;;;3.15;;
82159;SDS011;71734;50.876;7.372;2023-07-31T09:01:50;9.00;;;2.92;;
82159;SDS011;71734;50.876;7.372;2023-07-31T09:06:47;7.90;;;3.08;;
82159;SDS011;71734;50.876;7.372;2023-07-31T09:09:16;9.85;;;3.38;;
82159;SDS011;71734;50.876;7.372;2023-07-31T09:11:42;7.55;;;2.80;;
82159;SDS011;71734;50.876;7.372;2023-07-31T09:14:09;8.30;;;3.05;;
82159;SDS011;71734;50.876;7.372;2023-07-31T09:16:37;8.68;;;2.97;;
82159;SDS011;71734;50.876;7.372;2023-07-31T09:19:22;8.63;;;3.15;;
82159;SDS011;71734;50.876;7.372;2023-07-31T09:21:51;7.38;;;2.63;;
82159;SDS011;71734;50.876;7.372;2023-07-31T09:26:49;11.32;;;3.72;;
82159;SDS011;71734;50.876;7.372;2023-07-31T09:29:20;8.05;;;3.00;;
82159;SDS011;71734;50.876;7.372;2023-07-31T09:31:46;7.30;;;2.80;;
82159;SDS011;71734;50.876;7.372;2023-07-31T09:34:13;7.50;;;2.75;;
82159;SDS011;71734;50.876;7.372;2023-07-31T09:36:40;8.15;;;3.42;;
82159;SDS011;71734;50.876;7.372;2023-07-31T09:39:16;9.60;;;3.53;;
82159;SDS011;71734;50.876;7.372;2023-07-31T09:41:57;9.38;;;3.08;;
82159;SDS011;71734;50.876;7.372;2023-07-31T09:44:40;9.18;;;3.53;;
82159;SDS011;71734;50.876;7.372;2023-07-31T09:47:08;8.63;;;3.17;;
82159;SDS011;71734;50.876;7.372;2023-07-31T09:49:48;8.57;;;2.90;;
82159;SDS011;71734;50.876;7.372;2023-07-31T09:52:20;8.05;;;3.08;;
82159;SDS011;71734;50.876;7.372;2023-07-31T09:54:47;6.55;;;2.70;;
82159;SDS011;71734;50.876;7.372;2023-07-31T09:57:22;8.60;;;2.95;;
82159;SDS011;71734;50.876;7.372;2023-07-31T09:59:50;8.63;;;3.20;;
82159;SDS011;71734;50.876;7.372;2023-07-31T10:02:22;7.40;;;2.95;;
82159;SDS011;71734;50.876;7.372;2023-07-31T10:04:49;7.32;;;2.55;;
82159;SDS011;71734;50.876;7.372;2023-07-31T10:07:17;8.05;;;2.67;;
82159;SDS011;71734;50.876;7.372;2023-07-31T10:09:52;8.25;;;2.80;;
82159;SDS011;71734;50.876;7.372;2023-07-31T10:12:21;7.05;;;2.63;;
82159;SDS011;71734;50.876;7.372;2023-07-31T10:14:53;6.72;;;2.63;;
82159;SDS011;71734;50.876;7.372;2023-07-31T10:17:20;8.10;;;2.85;;
82159;SDS011;71734;50.876;7.372;2023-07-31T10:19:52;10.90;;;3.58;;
82159;SDS011;71734;50.876;7.372;2023-07-31T10:22:19;7.13;;;2.92;;
82159;SDS011;71734;50.876;7.372;2023-07-31T10:24:53;7.22;;;2.50;;
82159;SDS011;71734;50.876;7.372;2023-07-31T10:27:22;6.95;;;3.17;;
82159;SDS011;71734;50.876;7.372;2023-07-31T10:29:52;7.82;;;2.70;;
82159;SDS011;71734;50.876;7.372;2023-07-31T10:32:20;8.15;;;3.10;;
82159;SDS011;71734;50.876;7.372;2023-07-31T10:34:48;8.00;;;2.83;;
82159;SDS011;71734;50.876;7.372;2023-07-31T10:37:21;8.30;;;3.03;;
82159;SDS011;71734;50.876;7.372;2023-07-31T10:46:01;9.32;;;2.95;;
82159;SDS011;71734;50.876;7.372;2023-07-31T10:49:05;8.55;;;2.65;;
82159;SDS011;71734;50.876;7.372;2023-07-31T10:51:34;8.88;;;2.58;;
82159;SDS011;71734;50.876;7.372;2023-07-31T10:54:12;8.45;;;2.70;;
82159;SDS011;71734;50.876;7.372;2023-07-31T10:56:46;6.82;;;2.72;;
82159;SDS011;71734;50.876;7.372;2023-07-31T10:59:27;7.10;;;2.78;;
82159;SDS011;71734;50.876;7.372;2023-07-31T11:02:25;6.78;;;2.42;;
82159;SDS011;71734;50.876;7.372;2023-07-31T11:05:10;6.63;;;2.50;;
82159;SDS011;71734;50.876;7.372;2023-07-31T11:07:49;7.35;;;2.80;;
82159;SDS011;71734;50.876;7.372;2023-07-31T11:10:19;8.35;;;2.70;;
82159;SDS011;71734;50.876;7.372;2023-07-31T11:13:12;8.88;;;2.67;;
82159;SDS011;71734;50.876;7.372;2023-07-31T11:15:47;6.70;;;2.60;;
82159;SDS011;71734;50.876;7.372;2023-07-31T11:18:23;6.40;;;2.60;;
82159;SDS011;71734;50.876;7.372;2023-07-31T11:21:07;6.82;;;2.22;;
82159;SDS011;71734;50.876;7.372;2023-07-31T11:26:27;8.90;;;3.15;;
82159;SDS011;71734;50.876;7.372;2023-07-31T11:29:04;7.30;;;2.42;;
82159;SDS011;71734;50.876;7.372;2023-07-31T11:31:48;6.68;;;2.03;;
82159;SDS011;71734;50.876;7.372;2023-07-31T11:34:28;7.10;;;2.47;;
82159;SDS011;71734;50.876;7.372;2023-07-31T11:37:28;6.18;;;2.30;;
82159;SDS011;71734;50.876;7.372;2023-07-31T11:41:21;6.50;;;2.22;;
82159;SDS011;71734;50.876;7.372;2023-07-31T12:20:39;6.22;;;1.75;;
82159;SDS011;71734;50.876;7.372;2023-07-31T12:23:13;4.60;;;1.45;;
82159;SDS011;71734;50.876;7.372;2023-07-31T12:25:41;4.07;;;1.40;;
82159;SDS011;71734;50.876;7.372;2023-07-31T12:28:10;3.97;;;1.30;;
82159;SDS011;71734;50.876;7.372;2023-07-31T12:30:41;4.60;;;1.10;;
82159;SDS011;71734;50.876;7.372;2023-07-31T12:33:12;3.25;;;1.67;;
82159;SDS011;71734;50.876;7.372;2023-07-31T12:35:45;3.15;;;0.98;;
82159;SDS011;71734;50.876;7.372;2023-07-31T12:38:18;4.43;;;1.20;;
82159;SDS011;71734;50.876;7.372;2023-07-31T12:40:46;4.03;;;1.10;;
82159;SDS011;71734;50.876;7.372;2023-07-31T12:43:16;5.97;;;1.38;;
82159;SDS011;71734;50.876;7.372;2023-07-31T12:45:43;3.10;;;1.10;;
82159;SDS011;71734;50.876;7.372;2023-07-31T12:48:10;4.18;;;1.20;;
82159;SDS011;71734;50.876;7.372;2023-07-31T12:50:48;3.65;;;1.10;;
82159;SDS011;71734;50.876;7.372;2023-07-31T12:53:18;3.85;;;1.17;;
82159;SDS011;71734;50.876;7.372;2023-07-31T12:55:45;4.15;;;1.25;;
82159;SDS011;71734;50.876;7.372;2023-07-31T12:58:12;3.65;;;1.20;;
82159;SDS011;71734;50.876;7.372;2023-07-31T13:00:45;4.07;;;1.30;;
82159;SDS011;71734;50.876;7.372;2023-07-31T13:03:11;4.53;;;1.27;;
82159;SDS011;71734;50.876;7.372;2023-07-31T13:05:38;4.32;;;1.20;;
82159;SDS011;71734;50.876;7.372;2023-07-31T13:08:14;4.00;;;1.40;;
82159;SDS011;71734;50.876;7.372;2023-07-31T13:10:48;5.25;;;1.40;;
82159;SDS011;71734;50.876;7.372;2023-07-31T13:13:14;4.70;;;1.70;;
82159;SDS011;71734;50.876;7.372;2023-07-31T13:15:41;7.38;;;1.48;;
82159;SDS011;71734;50.876;7.372;2023-07-31T13:18:10;4.43;;;1.60;;
82159;SDS011;71734;50.876;7.372;2023-07-31T13:20:37;6.95;;;1.50;;
82159;SDS011;71734;50.876;7.372;2023-07-31T13:23:03;4.50;;;1.67;;
82159;SDS011;71734;50.876;7.372;2023-07-31T13:25:42;4.80;;;1.80;;
82159;SDS011;71734;50.876;7.372;2023-07-31T13:28:15;4.93;;;1.73;;
82159;SDS011;71734;50.876;7.372;2023-07-31T13:30:41;5.85;;;1.90;;
82159;SDS011;71734;50.876;7.372;2023-07-31T13:33:08;6.25;;;2.03;;
82159;SDS011;71734;50.876;7.372;2023-07-31T13:35:35;4.95;;;1.70;;
82159;SDS011;71734;50.876;7.372;2023-07-31T13:38:01;5.25;;;1.60;;
82159;SDS011;71734;50.876;7.372;2023-07-31T13:40:28;7.32;;;2.00;;
82159;SDS011;71734;50.876;7.372;2023-07-31T13:42:58;5.20;;;1.90;;
82159;SDS011;71734;50.876;7.372;2023-07-31T13:45:28;5.63;;;2.22;;
82159;SDS011;71734;50.876;7.372;2023-07-31T13:47:54;7.65;;;1.95;;
82159;SDS011;71734;50.876;7.372;2023-07-31T13:50:24;5.47;;;2.38;;
82159;SDS011;71734;50.876;7.372;2023-07-31T13:52:50;6.18;;;2.28;;
82159;SDS011;71734;50.876;7.372;2023-07-31T13:55:17;7.00;;;2.53;;
82159;SDS011;71734;50.876;7.372;2023-07-31T13:57:50;6.72;;;2.25;;
82159;SDS011;71734;50.876;7.372;2023-07-31T14:00:21;6.65;;;2.45;;
82159;SDS011;71734;50.876;7.372;2023-07-31T14:02:54;6.38;;;2.05;;
82159;SDS011;71734;50.876;7.372;2023-07-31T14:05:21;6.38;;;2.15;;
82159;SDS011;71734;50.876;7.372;2023-07-31T14:07:55;7.80;;;2.75;;
82159;SDS011;71734;50.876;7.372;2023-07-31T14:10:22;9.82;;;2.47;;
82159;SDS011;71734;50.876;7.372;2023-07-31T14:12:50;6.25;;;2.50;;
82159;SDS011;71734;50.876;7.372;2023-07-31T14:15:17;5.65;;;2.03;;
82159;SDS011;71734;50.876;7.372;2023-07-31T14:17:45;5.50;;;2.10;;
82159;SDS011;71734;50.876;7.372;2023-07-31T14:20:14;6.57;;;2.65;;
82159;SDS011;71734;50.876;7.372;2023-07-31T14:22:41;5.00;;;1.90;;
82159;SDS011;71734;50.876;7.372;2023-07-31T14:25:07;6.05;;;1.80;;
82159;SDS011;71734;50.876;7.372;2023-07-31T14:27:38;5.15;;;2.00;;
82159;SDS011;71734;50.876;7.372;2023-07-31T14:30:08;4.82;;;1.80;;
82159;SDS011;71734;50.876;7.372;2023-07-31T14:32:41;5.18;;;1.90;;
82159;SDS011;71734;50.876;7.372;2023-07-31T14:38:13;6.78;;;1.90;;
82159;SDS011;71734;50.876;7.372;2023-07-31T14:40:45;4.93;;;1.67;;
82159;SDS011;71734;50.876;7.372;2023-07-31T14:59:42;5.55;;;1.75;;
82159;SDS011;71734;50.876;7.372;2023-07-31T15:02:53;4.70;;;1.75;;
82159;SDS011;71734;50.876;7.372;2023-07-31T15:05:22;6.50;;;1.77;;
82159;SDS011;71734;50.876;7.372;2023-07-31T15:07:51;5.90;;;1.80;;
82159;SDS011;71734;50.876;7.372;2023-07-31T15:10:23;4.88;;;1.60;;
82159;SDS011;71734;50.876;7.372;2023-07-31T15:12:59;4.70;;;1.65;;
82159;SDS011;71734;50.876;7.372;2023-07-31T15:15:27;6.32;;;1.95;;
82159;SDS011;71734;50.876;7.372;2023-07-31T15:17:54;5.15;;;1.83;;
82159;SDS011;71734;50.876;7.372;2023-07-31T15:20:28;4.95;;;1.70;;
82159;SDS011;71734;50.876;7.372;2023-07-31T15:22:55;4.82;;;1.55;;
82159;SDS011;71734;50.876;7.372;2023-07-31T15:25:26;4.22;;;1.52;;
82159;SDS011;71734;50.876;7.372;2023-07-31T15:27:53;4.90;;;1.60;;
82159;SDS011;71734;50.876;7.372;2023-07-31T15:30:19;4.95;;;1.67;;
82159;SDS011;71734;50.876;7.372;2023-07-31T15:32:47;5.13;;;1.60;;
82159;SDS011;71734;50.876;7.372;2023-07-31T15:35:15;4.93;;;1.75;;
82159;SDS011;71734;50.876;7.372;2023-07-31T15:37:41;5.35;;;1.58;;
82159;SDS011;71734;50.876;7.372;2023-07-31T15:40:08;4.72;;;1.42;;
82159;SDS011;71734;50.876;7.372;2023-07-31T15:42:35;4.82;;;1.55;;
82159;SDS011;71734;50.876;7.372;2023-07-31T15:45:05;4.50;;;1.60;;
82159;SDS011;71734;50.876;7.372;2023-07-31T15:47:32;4.93;;;1.70;;
82159;SDS011;71734;50.876;7.372;2023-07-31T15:50:00;5.00;;;1.58;;
82159;SDS011;71734;50.876;7.372;2023-07-31T15:52:26;5.35;;;1.58;;
82159;SDS011;71734;50.876;7.372;2023-07-31T15:54:53;4.97;;;1.40;;
82159;SDS011;71734;50.876;7.372;2023-07-31T15:57:20;4.78;;;1.67;;
82159;SDS011;71734;50.876;7.372;2023-07-31T15:59:46;4.60;;;1.52;;
82159;SDS011;71734;50.876;7.372;2023-07-31T16:02:13;4.40;;;1.58;;
82159;SDS011;71734;50.876;7.372;2023-07-31T16:04:41;5.30;;;1.63;;
82159;SDS011;71734;50.876;7.372;2023-07-31T16:07:09;3.90;;;1.38;;
82159;SDS011;71734;50.876;7.372;2023-07-31T16:09:37;5.22;;;1.80;;
82159;SDS011;71734;50.876;7.372;2023-07-31T16:12:04;4.78;;;1.73;;